Map

Track Data

SID SEASON NUMBER BASIN SUBBASIN NAME ISO_TIME NATURE LAT LON WMO_WIND WMO_PRES WMO_AGENCY TRACK_TYPE DIST2LAND LANDFALL IFLAG USA_AGENCY USA_ATCF_ID USA_LAT USA_LON USA_RECORD USA_STATUS USA_WIND USA_PRES USA_SSHS USA_R34_NE USA_R34_SE USA_R34_SW USA_R34_NW USA_R50_NE USA_R50_SE USA_R50_SW USA_R50_NW USA_R64_NE USA_R64_SE USA_R64_SW USA_R64_NW USA_POCI USA_ROCI USA_RMW USA_EYE TOKYO_LAT TOKYO_LON TOKYO_GRADE TOKYO_WIND TOKYO_PRES TOKYO_R50_DIR TOKYO_R50_LONG TOKYO_R50_SHORT TOKYO_R30_DIR TOKYO_R30_LONG TOKYO_R30_SHORT TOKYO_LAND CMA_LAT CMA_LON CMA_CAT CMA_WIND CMA_PRES HKO_LAT HKO_LON HKO_CAT HKO_WIND HKO_PRES NEWDELHI_LAT NEWDELHI_LON NEWDELHI_GRADE NEWDELHI_WIND NEWDELHI_PRES NEWDELHI_CI NEWDELHI_DP NEWDELHI_POCI REUNION_LAT REUNION_LON REUNION_TYPE REUNION_WIND REUNION_PRES REUNION_TNUM REUNION_CI REUNION_RMW REUNION_R34_NE REUNION_R34_SE REUNION_R34_SW REUNION_R34_NW REUNION_R50_NE REUNION_R50_SE REUNION_R50_SW REUNION_R50_NW REUNION_R64_NE REUNION_R64_SE REUNION_R64_SW REUNION_R64_NW BOM_LAT BOM_LON BOM_TYPE BOM_WIND BOM_PRES BOM_TNUM BOM_CI BOM_RMW BOM_R34_NE BOM_R34_SE BOM_R34_SW BOM_R34_NW BOM_R50_NE BOM_R50_SE BOM_R50_SW BOM_R50_NW BOM_R64_NE BOM_R64_SE BOM_R64_SW BOM_R64_NW BOM_ROCI BOM_POCI BOM_EYE BOM_POS_METHOD BOM_PRES_METHOD NADI_LAT NADI_LON NADI_CAT NADI_WIND NADI_PRES WELLINGTON_LAT WELLINGTON_LON WELLINGTON_WIND WELLINGTON_PRES DS824_LAT DS824_LON DS824_STAGE DS824_WIND DS824_PRES TD9636_LAT TD9636_LON TD9636_STAGE TD9636_WIND TD9636_PRES TD9635_LAT TD9635_LON TD9635_WIND TD9635_PRES TD9635_ROCI NEUMANN_LAT NEUMANN_LON NEUMANN_CLASS NEUMANN_WIND NEUMANN_PRES MLC_LAT MLC_LON MLC_CLASS MLC_WIND MLC_PRES USA_GUST BOM_GUST BOM_GUST_PER REUNION_GUST REUNION_GUST_PER USA_SEAHGT USA_SEARAD_NE USA_SEARAD_SE USA_SEARAD_SW USA_SEARAD_NW STORM_SPEED STORM_DIR
1963138N08068 1963 45 NI AS NOT_NAMED 1963-05-17 18:00:00 TS 7.60000 68.4000 main 892 887 O________O____ jtwc_io IO021963 7.60000 68.4000 -1 7.60000 68.4000 TC 1 10
1963138N08068 1963 45 NI AS NOT_NAMED 1963-05-17 21:00:00 TS 7.66750 68.4000 main 887 881 P________P____ IO021963 7.66750 68.4000 -1 7.66750 68.4000 TC 2 8
1963138N08068 1963 45 NI AS NOT_NAMED 1963-05-18 00:00:00 TS 7.80000 68.4000 main 881 869 O________O____ jtwc_io IO021963 7.80000 68.4000 -1 7.80000 68.4000 TC 25 4 357
1963138N08068 1963 45 NI AS NOT_NAMED 1963-05-18 03:00:00 TS 8.04223 68.4000 main 869 846 P________PO___ IO021963 8.04751 68.4000 -1 8.04751 68.4000 TC 25 8.00000 68.4000 1 6 0
1963138N08068 1963 45 NI AS NOT_NAMED 1963-05-18 06:00:00 TS 8.41219 68.4000 main 846 825 O________OP___ jtwc_io IO021963 8.40000 68.4000 -1 8.40000 68.4000 TC 25 8.46094 68.4000 1 8 0
1963138N08068 1963 45 NI AS NOT_NAMED 1963-05-18 09:00:00 TS 8.86842 68.4000 main 820 800 P________PP___ IO021963 8.85750 68.4000 -1 8.85750 68.4000 TC 30 8.89752 68.4000 1 9 0
1963138N08068 1963 45 NI AS NOT_NAMED 1963-05-18 12:00:00 TS 9.29511 68.4000 main 800 785 O________OP___ jtwc_io IO021963 9.30000 68.4000 -1 9.30000 68.4000 TC 35 9.28534 68.4000 1 7 1
1963138N08068 1963 45 NI AS NOT_NAMED 1963-05-18 15:00:00 TS 9.59666 68.4000 main 785 774 P________PO___ IO021963 9.59499 68.4000 -1 9.59499 68.4000 TC 35 9.60000 68.4000 2 5 0
1963138N08068 1963 45 NI AS NOT_NAMED 1963-05-18 18:00:00 TS 9.80812 68.4000 main 774 765 O________OP___ jtwc_io IO021963 9.80000 68.4000 -1 9.80000 68.4000 TC 35 9.82435 68.4000 2 4 3
1963138N08068 1963 45 NI AS NOT_NAMED 1963-05-18 21:00:00 TS 9.98166 68.4000 main 765 760 P________PP___ IO021963 9.98750 68.4000 -1 9.98750 68.4000 TC 35 9.96997 68.4000 2 3 0
1963138N08068 1963 45 NI AS NOT_NAMED 1963-05-19 00:00:00 TS 10.0852 68.4000 main 760 760 O________OP___ jtwc_io IO021963 10.1000 68.4000 -1 10.1000 68.4000 TC 35 10.0556 68.4000 2 1 0
1963138N08068 1963 45 NI AS NOT_NAMED 1963-05-19 03:00:00 TS 10.1150 68.4000 main 760 760 P________PO___ IO021963 10.1225 68.4000 -1 10.1225 68.4000 TC 35 10.1000 68.4000 3 0 0
1963138N08068 1963 45 NI AS NOT_NAMED 1963-05-19 06:00:00 TS 10.1120 68.4000 main 760 760 O________OP___ jtwc_io IO021963 10.1000 68.4000 -1 10.1000 68.4000 TC 35 10.1359 68.4000 3 0 0
1963138N08068 1963 45 NI AS NOT_NAMED 1963-05-19 09:00:00 TS 10.1125 68.4000 main 760 760 P________PP___ IO021963 10.1000 68.4000 -1 10.1000 68.4000 TC 35 10.1375 68.4000 3 0 0
1963138N08068 1963 45 NI AS NOT_NAMED 1963-05-19 12:00:00 TS 10.1068 68.4000 main 760 760 O________OP___ jtwc_io IO021963 10.1000 68.4000 -1 10.1000 68.4000 TC 35 10.1203 68.4000 3 0 0
1963138N08068 1963 45 NI AS NOT_NAMED 1963-05-19 15:00:00 TS 10.1000 68.4000 main 760 760 P________PO___ IO021963 10.1000 68.4000 -1 10.1000 68.4000 TC 35 10.1000 68.4000 3 0 0
1963138N08068 1963 45 NI AS NOT_NAMED 1963-05-19 18:00:00 TS 10.0946 68.4014 main 760 760 O________OP___ jtwc_io IO021963 10.1000 68.4000 -1 10.1000 68.4000 TC 35 10.0837 68.4041 3 0 0
1963138N08068 1963 45 NI AS NOT_NAMED 1963-05-19 21:00:00 TS 10.0900 68.4025 main 760 760 P________PP___ IO021963 10.1000 68.4000 -1 10.1000 68.4000 TC 35 10.0700 68.4075 3 0 0
1963138N08068 1963 45 NI AS NOT_NAMED 1963-05-20 00:00:00 TS 10.0904 68.4024 main 760 760 O________OP___ jtwc_io IO021963 10.1000 68.4000 -1 10.1000 68.4000 TC 35 10.0712 68.4072 3 0 0
1963138N08068 1963 45 NI AS NOT_NAMED 1963-05-20 03:00:00 TS 10.0850 68.4050 main 760 760 P________PO___ IO021963 10.0775 68.4075 -1 10.0775 68.4075 TC 35 10.1000 68.4000 3 0 331
1963138N08068 1963 45 NI AS NOT_NAMED 1963-05-20 06:00:00 TS 10.1251 68.3981 main 760 756 O________OP___ jtwc_io IO021963 10.1000 68.4000 -1 10.1000 68.4000 TC 35 10.1753 68.3944 3 2 348
1963138N08068 1963 45 NI AS NOT_NAMED 1963-05-20 09:00:00 TS 10.2492 68.3600 main 756 751 P________PP___ IO021963 10.2350 68.3500 -1 10.2350 68.3500 TC 50 10.2775 68.3800 3 3 344
1963138N08068 1963 45 NI AS NOT_NAMED 1963-05-20 12:00:00 TS 10.3970 68.3169 main 757 753 O________OP___ jtwc_io IO021963 10.4000 68.3000 -1 10.4000 68.3000 TC 65 10.3909 68.3506 3 3 349
1963138N08068 1963 45 NI AS NOT_NAMED 1963-05-20 15:00:00 TS 10.5100 68.3050 main 753 749 P________PO___ IO021963 10.5150 68.3075 -1 10.5150 68.3075 TC 65 10.5000 68.3000 4 2 352
1963138N08068 1963 45 NI AS NOT_NAMED 1963-05-20 18:00:00 TS 10.5927 68.2793 main 749 749 O________OP___ jtwc_io IO021963 10.6000 68.3000 -1 10.6000 68.3000 TC 65 10.5781 68.2378 4 2 324
1963138N08068 1963 45 NI AS NOT_NAMED 1963-05-20 21:00:00 TS 10.6500 68.2041 main 760 756 P________PP___ IO021963 10.6500 68.2300 -1 10.6500 68.2300 TC 65 10.6499 68.1524 4 2 301
1963138N08068 1963 45 NI AS NOT_NAMED 1963-05-21 00:00:00 TS 10.7073 68.0803 main 766 766 O________OP___ jtwc_io IO021963 10.7000 68.1000 -1 10.7000 68.1000 TC 65 10.7218 68.0409 4 3 297
1963138N08068 1963 45 NI AS NOT_NAMED 1963-05-21 03:00:00 TS 10.7950 67.9100 main 784 784 P________PO___ IO021963 10.7925 67.9150 -1 10.7925 67.9150 TC 65 10.8000 67.9000 4 4 298
1963138N08068 1963 45 NI AS NOT_NAMED 1963-05-21 06:00:00 TS 10.9003 67.7096 main 801 801 O________OP___ jtwc_io IO021963 10.9000 67.7000 -1 10.9000 67.7000 TC 65 10.9010 67.7288 4 4 298
1963138N08068 1963 45 NI AS NOT_NAMED 1963-05-21 09:00:00 TS 11.0025 67.5100 main 819 819 P________PP___ IO021963 11.0000 67.5000 -1 11.0000 67.5000 TC 65 11.0075 67.5301 4 4 297
1963138N08068 1963 45 NI AS NOT_NAMED 1963-05-21 12:00:00 TS 11.1034 67.3054 main 838 838 O________OP___ jtwc_io IO021963 11.1000 67.3000 -1 11.1000 67.3000 TC 65 11.1103 67.3163 4 5 297
1963138N08068 1963 45 NI AS NOT_NAMED 1963-05-21 15:00:00 TS 11.2100 67.1000 main 856 856 P________PO___ IO021963 11.2150 67.1000 -1 11.2150 67.1000 TC 65 11.2000 67.1000 4 4 295
1963138N08068 1963 45 NI AS NOT_NAMED 1963-05-21 18:00:00 TS 11.2840 66.9040 main 869 869 O________OP___ jtwc_io IO021963 11.3000 66.9000 -1 11.3000 66.9000 TC 65 11.2521 66.9120 4 4 283
1963138N08068 1963 45 NI AS NOT_NAMED 1963-05-21 21:00:00 TS 11.2974 66.7074 main 888 888 P________PP___ IO021963 11.3000 66.6999 -1 11.3000 66.6999 TC 65 11.2923 66.7223 4 4 274
1963138N08068 1963 45 NI AS NOT_NAMED 1963-05-22 00:00:00 TS 11.3121 66.5071 main 907 907 O________OP___ jtwc_io IO021963 11.3000 66.5000 -1 11.3000 66.5000 TC 65 11.3364 66.5214 4 4 283
1963138N08068 1963 45 NI AS NOT_NAMED 1963-05-22 03:00:00 TS 11.3850 66.3100 main 921 921 P________PO___ IO021963 11.3775 66.3150 -1 11.3775 66.3150 TC 65 11.4000 66.3000 4 5 294
1963138N08068 1963 45 NI AS NOT_NAMED 1963-05-22 06:00:00 TS 11.5025 66.0782 main 935 935 O________OP___ jtwc_io IO021963 11.5000 66.1000 -1 11.5000 66.1000 TC 65 11.5076 66.0345 4 6 297
1963138N08068 1963 45 NI AS NOT_NAMED 1963-05-22 09:00:00 TS 11.6451 65.7884 main 960 955 P________PP___ IO021963 11.6500 65.8075 -1 11.6500 65.8075 TC 65 11.6351 65.7502 4 6 296
1963138N08068 1963 45 NI AS NOT_NAMED 1963-05-22 12:00:00 TS 11.7900 65.4886 main 980 980 O________OP___ jtwc_io IO021963 11.8000 65.5000 -1 11.8000 65.5000 TC 65 11.7701 65.4657 4 6 296
1963138N08068 1963 45 NI AS NOT_NAMED 1963-05-22 15:00:00 TS 11.9100 65.2233 main 1006 1006 P________PO___ IO021963 11.9150 65.2350 -1 11.9150 65.2350 TC 65 11.9000 65.2000 4 5 293
1963138N08068 1963 45 NI AS NOT_NAMED 1963-05-22 18:00:00 TS 11.9915 65.0008 main 1022 1022 O________OP___ jtwc_io IO021963 12.0000 65.0000 -1 12.0000 65.0000 TC 65 11.9744 65.0024 4 4 287
1963138N08068 1963 45 NI AS NOT_NAMED 1963-05-22 21:00:00 TS 12.0340 64.8072 main 1042 1042 P________PP___ IO021963 12.0275 64.7999 -1 12.0275 64.7999 TC 65 12.0471 64.8218 4 4 288
1963138N08068 1963 45 NI AS NOT_NAMED 1963-05-23 00:00:00 TS 12.1154 64.6101 main 1057 1030 O________OP___ jtwc_io IO021963 12.1000 64.6000 -1 12.1000 64.6000 TC 65 12.1463 64.6304 4 5 303
1963138N08068 1963 45 NI AS NOT_NAMED 1963-05-23 03:00:00 TS 12.3083 64.3816 main 1030 983 P________PO___ IO021963 12.3125 64.3725 -1 12.3125 64.3725 TC 65 12.3000 64.4000 4 7 313
1963138N08068 1963 45 NI AS NOT_NAMED 1963-05-23 06:00:00 TS 12.5808 64.1005 main 983 936 O________OP___ jtwc_io IO021963 12.6000 64.1000 -1 12.6000 64.1000 TC 65 12.5425 64.1014 4 8 313
1963138N08068 1963 45 NI AS NOT_NAMED 1963-05-23 09:00:00 TS 12.8750 63.7684 main 936 882 P________PP___ IO021963 12.8925 63.7725 -1 12.8925 63.7725 TC 65 12.8400 63.7601 4 9 312
1963138N08068 1963 45 NI AS NOT_NAMED 1963-05-23 12:00:00 TS 13.1892 63.3963 main 882 828 O________OP___ jtwc_io IO021963 13.2000 63.4000 -1 13.2000 63.4000 TC 65 13.1675 63.3888 4 10 310
1963138N08068 1963 45 NI AS NOT_NAMED 1963-05-23 15:00:00 TS 13.5000 63.0050 main 828 775 P________PO___ IO021963 13.5000 63.0074 -1 13.5000 63.0074 TC 65 13.5000 63.0000 4 10 308
1963138N08068 1963 45 NI AS NOT_NAMED 1963-05-23 18:00:00 TS 13.8054 62.5994 main 775 721 O________OP___ jtwc_io IO021963 13.8000 62.6000 -1 13.8000 62.6000 TC 65 13.8163 62.5983 4 10 308
1963138N08068 1963 45 NI AS NOT_NAMED 1963-05-23 21:00:00 TS 14.1100 62.1950 main 721 668 P________PP___ IO021963 14.0999 62.1999 -1 14.0999 62.1999 TC 65 14.1301 62.1852 4 10 308
1963138N08068 1963 45 NI AS NOT_NAMED 1963-05-24 00:00:00 TS 14.4096 61.7932 main 668 615 O________OP___ jtwc_io IO021963 14.4000 61.8000 -1 14.4000 61.8000 TC 65 14.4289 61.7795 4 10 308
1963138N08068 1963 45 NI AS NOT_NAMED 1963-05-24 03:00:00 TS 14.7150 61.3851 main 615 562 P________PO___ IO021963 14.7225 61.3776 -1 14.7225 61.3776 TC 65 14.7000 61.4000 4 10 307
1963138N08068 1963 45 NI AS NOT_NAMED 1963-05-24 06:00:00 TS 14.9843 61.0142 main 562 525 O________OP___ jtwc_io IO021963 15.0000 61.0000 -1 15.0000 61.0000 TC 65 14.9530 61.0427 4 8 306
1963138N08068 1963 45 NI AS NOT_NAMED 1963-05-24 09:00:00 TS 15.1732 60.7240 main 525 503 P________PP___ IO021963 15.1724 60.7273 -1 15.1724 60.7273 TC 65 15.1749 60.7174 4 6 303
1963138N08068 1963 45 NI AS NOT_NAMED 1963-05-24 12:00:00 TS 15.3198 60.4778 main 503 467 O________OP___ jtwc_io IO021963 15.3000 60.5000 -1 15.3000 60.5000 TC 65 15.3593 60.4334 4 6 302
1963138N08068 1963 45 NI AS NOT_NAMED 1963-05-24 15:00:00 TS 15.4817 60.2134 main 467 446 P________PO___ IO021963 15.4725 60.2201 -1 15.4725 60.2201 TC 65 15.5000 60.2000 4 5 301
1963138N08068 1963 45 NI AS NOT_NAMED 1963-05-24 18:00:00 TS 15.5881 60.0202 main 446 446 O________OP___ jtwc_io IO021963 15.6000 60.0000 -1 15.6000 60.0000 TC 65 15.5642 60.0606 4 3 295
1963138N08068 1963 45 NI AS NOT_NAMED 1963-05-24 21:00:00 TS 15.5972 59.9546 main 446 440 P________PP___ IO021963 15.5999 59.9499 -1 15.5999 59.9499 TC 65 15.5918 59.9641 4 1 279
1963138N08068 1963 45 NI AS NOT_NAMED 1963-05-25 00:00:00 TS 15.6079 59.8868 main 440 420 O________OP___ jtwc_io IO021963 15.6000 59.9000 -1 15.6000 59.9000 TC 65 15.6236 59.8605 4 3 294
1963138N08068 1963 45 NI AS NOT_NAMED 1963-05-25 03:00:00 TS 15.7083 59.7016 main 420 386 P________PO___ IO021963 15.7125 59.7024 -1 15.7125 59.7024 TC 65 15.7000 59.7000 4 6 302
1963138N08068 1963 45 NI AS NOT_NAMED 1963-05-25 06:00:00 TS 15.8998 59.4011 main 386 339 O________OP___ jtwc_io IO021963 15.9000 59.4000 -1 15.9000 59.4000 TC 65 15.8994 59.4032 4 8 304
1963138N08068 1963 45 NI AS NOT_NAMED 1963-05-25 09:00:00 TS 16.1477 59.0205 main 339 285 P________PP___ IO021963 16.1501 59.0077 -1 16.1501 59.0077 TC 65 16.1430 59.0460 4 9 304
1963138N08068 1963 45 NI AS NOT_NAMED 1963-05-25 12:00:00 TS 16.3967 58.6219 main 285 246 O________OP___ jtwc_io IO021963 16.4000 58.6000 -1 16.4000 58.6000 TC 65 16.3900 58.6657 4 8 302
1963138N08068 1963 45 NI AS NOT_NAMED 1963-05-25 15:00:00 TS 16.5866 58.2849 main 246 215 P________PO___ IO021963 16.5799 58.2774 -1 16.5799 58.2774 TC 65 16.6000 58.3000 4 7 297
1963138N08068 1963 45 NI AS NOT_NAMED 1963-05-25 18:00:00 TS 16.6978 58.0009 main 215 200 O________OP___ jtwc_io IO021963 16.7000 58.0000 -1 16.7000 58.0000 TC 65 16.6935 58.0027 4 5 287
1963138N08068 1963 45 NI AS NOT_NAMED 1963-05-25 21:00:00 TS 16.7498 57.7421 main 192 169 P________PP___ IO021963 16.7499 57.7498 -1 16.7499 57.7498 TC 65 16.7497 57.7265 4 5 282
1963138N08068 1963 45 NI AS NOT_NAMED 1963-05-26 00:00:00 TS 16.8020 57.4874 main 169 140 O________OP___ jtwc_io IO021963 16.8000 57.5000 -1 16.8000 57.5000 TC 65 16.8060 57.4621 4 5 288
1963138N08068 1963 45 NI AS NOT_NAMED 1963-05-26 03:00:00 TS 16.9183 57.2000 main 140 104 P________PO___ IO021963 16.9275 57.2000 -1 16.9275 57.2000 TC 50 16.9000 57.2000 4 6 297
1963138N08068 1963 45 NI AS NOT_NAMED 1963-05-26 06:00:00 TS 17.0839 56.9129 main 104 74 O________OP___ jtwc_io IO021963 17.1000 56.9000 -1 17.1000 56.9000 TC 35 17.0596 56.9323 4 6 305
1963138N08068 1963 45 NI AS NOT_NAMED 1963-05-26 09:00:00 TS 17.2866 56.6466 main 70 44 P________PP___ IO021963 17.2950 56.6376 -1 17.2950 56.6376 TC 30 17.2754 56.6587 4 7 311
1963138N08068 1963 45 NI AS NOT_NAMED 1963-05-26 12:00:00 TS 17.5142 56.3903 main 44 11 O________OP___ jtwc_io IO021963 17.5000 56.4000 -1 17.5000 56.4000 TC 25 17.5285 56.3807 4 7 315
1963138N08068 1963 45 NI AS NOT_NAMED 1963-05-26 15:00:00 NR 17.8000 56.1000 main 11 __________O___ IO021963 -1 TC 17.8000 56.1000 1 8 316

About IBTrACS Database

This database is a web-friendly format of International Best Track Archive for Climate Stewardship (IBTrACS), a global best track data archive curated by NOAA dating back to 1842.

Updated: 2021-10-25